Time;durP1;ratioP1;P1;durP2;ratioP2;P2;SDS_P1;SDS_P2;PMS_P1;PMS_P2;Temp;Humidity;BMP_temperature;BMP_pressure;BME280_temperature;BME280_humidity;BME280_pressure;Samples;Min_cycle;Max_cycle;Signal;HPM_P1;HPM_P2
2023/04/01 00:01:16;;;;;;;2.20;1.05;;;;;;;9.36;100.00;97022.59;4170889;28;20205;-50
2023/04/01 00:03:18;;;;;;;4.10;1.30;;;;;;;9.36;100.00;97033.50;4177791;28;20984;-50
2023/04/01 00:05:20;;;;;;;1.10;1.00;;;;;;;9.36;100.00;97028.06;4175103;28;20236;-50
2023/04/01 00:07:22;;;;;;;2.80;1.20;;;;;;;9.38;100.00;97026.69;4176405;28;20291;-49
2023/04/01 00:09:24;;;;;;;1.30;1.20;;;;;;;9.40;100.00;97018.19;4170691;28;20583;-50
2023/04/01 00:11:30;;;;;;;2.22;1.20;;;;;;;9.35;100.00;97026.41;4170907;28;20211;-51
2023/04/01 00:13:32;;;;;;;1.45;1.10;;;;;;;9.37;100.00;97029.69;4178778;28;20208;-50
2023/04/01 00:15:34;;;;;;;2.85;1.48;;;;;;;9.38;100.00;97021.22;4169987;28;20231;-50
2023/04/01 00:17:36;;;;;;;2.88;1.08;;;;;;;9.32;100.00;97024.22;4170086;28;20250;-49
2023/04/01 00:19:38;;;;;;;3.28;1.25;;;;;;;9.34;100.00;97008.41;4172352;28;20294;-50
2023/04/01 00:21:40;;;;;;;3.90;1.52;;;;;;;9.36;100.00;97017.13;4171806;28;20219;-50
2023/04/01 00:23:41;;;;;;;2.75;1.55;;;;;;;9.34;100.00;97019.34;4160836;28;20240;-50
2023/04/01 00:25:45;;;;;;;2.50;1.83;;;;;;;9.35;100.00;97010.84;4177388;28;20228;-50
2023/04/01 00:27:46;;;;;;;3.08;1.60;;;;;;;9.32;100.00;97016.03;4170063;28;20676;-50
2023/04/01 00:29:49;;;;;;;6.63;1.67;;;;;;;9.34;100.00;97013.88;4176951;28;20267;-50
2023/04/01 00:31:51;;;;;;;3.95;1.40;;;;;;;9.33;100.00;97017.66;4186487;28;20245;-50
2023/04/01 00:33:53;;;;;;;3.78;1.30;;;;;;;9.37;100.00;97010.56;4190978;28;20217;-50
2023/04/01 00:35:56;;;;;;;4.38;1.80;;;;;;;9.35;100.00;97010.03;4170128;28;20728;-50
2023/04/01 00:37:58;;;;;;;4.03;1.77;;;;;;;9.33;100.00;97017.66;4168369;28;20216;-50
2023/04/01 00:40:00;;;;;;;4.25;1.50;;;;;;;9.36;100.00;97017.13;4170137;28;20232;-50
2023/04/01 00:42:03;;;;;;;1.95;1.75;;;;;;;9.38;100.00;97009.47;4178140;28;20267;-51
2023/04/01 00:44:23;;;;;;;2.53;0.95;;;;;;;9.36;100.00;97017.13;4176744;28;20219;-51
2023/04/01 00:46:25;;;;;;;2.40;1.40;;;;;;;9.34;100.00;97009.22;4176947;28;20224;-51
2023/04/01 00:48:32;;;;;;;8.00;1.48;;;;;;;9.33;100.00;97013.03;4166495;28;20204;-50
2023/04/01 00:50:35;;;;;;;2.65;1.05;;;;;;;9.30;100.00;97018.25;4185842;28;20207;-50
2023/04/01 00:52:37;;;;;;;3.53;1.20;;;;;;;9.34;100.00;97014.66;4172064;28;20235;-50
2023/04/01 00:54:42;;;;;;;3.08;1.88;;;;;;;9.32;100.00;97021.50;4177791;28;20246;-50
2023/04/01 00:56:49;;;;;;;5.32;1.45;;;;;;;9.35;100.00;97010.84;4160718;28;20213;-50
2023/04/01 00:58:56;;;;;;;2.80;1.17;;;;;;;9.39;100.00;97022.03;4168646;28;20234;-50
2023/04/01 01:00:59;;;;;;;3.50;1.58;;;;;;;9.36;100.00;97011.66;4171299;28;20240;-50
2023/04/01 01:03:02;;;;;;;3.83;1.80;;;;;;;9.36;100.00;97000.75;4174728;28;20222;-49
2023/04/01 01:05:05;;;;;;;2.78;1.15;;;;;;;9.36;100.00;97000.75;4171677;28;20694;-50
2023/04/01 01:07:12;;;;;;;4.53;1.30;;;;;;;9.35;100.00;96997.19;4172093;28;20295;-50
2023/04/01 01:09:14;;;;;;;3.83;1.73;;;;;;;9.32;100.00;97016.03;4173075;28;20212;-49
2023/04/01 01:11:20;;;;;;;3.20;1.10;;;;;;;9.37;100.00;97007.84;4167963;28;20212;-49
2023/04/01 01:13:34;;;;;;;3.65;1.70;;;;;;;9.34;100.00;97011.16;4170986;28;20658;-49
2023/04/01 01:15:41;;;;;;;2.30;1.30;;;;;;;9.34;100.00;97002.94;4170426;28;20216;-49
2023/04/01 01:18:11;;;;;;;2.22;1.48;;;;;;;9.30;100.00;97002.69;4168776;28;20204;-51
2023/04/01 01:20:34;;;;;;;3.17;1.00;;;;;;;9.27;100.00;97002.41;4169275;28;20666;-51
2023/04/01 01:23:04;;;;;;;2.95;1.05;;;;;;;9.26;100.00;97000.78;4169599;28;20360;-50
2023/04/01 01:25:30;;;;;;;6.63;1.35;;;;;;;9.30;100.00;97007.31;4166458;28;20263;-50
2023/04/01 01:27:34;;;;;;;1.95;1.83;;;;;;;9.35;100.00;97004.59;4169663;28;20700;-50
2023/04/01 01:29:49;;;;;;;3.08;1.00;;;;;;;9.31;100.00;96993.41;4174421;28;20309;-49
2023/04/01 01:31:56;;;;;;;4.53;1.75;;;;;;;9.26;100.00;97000.78;4176269;28;20230;-49
2023/04/01 01:34:06;;;;;;;3.95;1.40;;;;;;;9.31;100.00;97000.75;4167532;28;20530;-48
2023/04/01 01:36:10;;;;;;;2.97;1.33;;;;;;;9.27;100.00;97005.13;4166601;28;20634;-49
2023/04/01 01:38:17;;;;;;;3.42;1.60;;;;;;;9.21;100.00;97009.00;4169947;28;20215;-48
2023/04/01 01:40:21;;;;;;;3.97;1.73;;;;;;;9.22;100.00;96999.72;4164681;28;20643;-50
2023/04/01 01:42:26;;;;;;;3.13;1.30;;;;;;;9.24;100.00;97002.97;4158680;28;20224;-49
2023/04/01 01:44:29;;;;;;;2.42;1.30;;;;;;;9.18;100.00;96998.63;4166607;28;20200;-49
2023/04/01 01:46:30;;;;;;;2.63;1.23;;;;;;;9.18;100.00;96998.63;4154599;28;20256;-49
2023/04/01 01:48:35;;;;;;;4.35;1.50;;;;;;;9.20;100.00;96990.97;4176396;28;20219;-49
2023/04/01 01:50:37;;;;;;;4.43;1.20;;;;;;;9.19;100.00;96983.88;4160537;28;20209;-50
2023/04/01 01:52:39;;;;;;;6.00;1.50;;;;;;;9.20;100.00;96991.81;4168210;28;20244;-50
2023/04/01 01:54:52;;;;;;;3.60;1.02;;;;;;;9.19;100.00;96994.81;4175341;28;20291;-50
2023/04/01 01:57:06;;;;;;;5.88;1.13;;;;;;;9.16;100.00;96987.19;4167518;28;20246;-50
2023/04/01 01:59:10;;;;;;;3.22;1.00;;;;;;;9.10;100.00;96986.41;4177058;28;20208;-50
2023/04/01 02:01:15;;;;;;;5.15;1.92;;;;;;;9.08;100.00;96987.75;4184237;28;20214;-50
2023/04/01 02:03:17;;;;;;;1.48;1.33;;;;;;;9.08;100.00;96983.09;4200651;28;20222;-50
2023/04/01 02:05:22;;;;;;;6.70;1.33;;;;;;;8.97;100.00;96983.44;4186756;28;20280;-49
2023/04/01 02:07:27;;;;;;;1.85;1.10;;;;;;;8.95;100.00;96977.44;4167884;28;20702;-49
2023/04/01 02:09:29;;;;;;;5.90;1.42;;;;;;;8.97;100.00;96975.25;4167764;28;20252;-51
2023/04/01 02:11:36;;;;;;;3.92;1.35;;;;;;;8.91;100.00;96988.09;4168408;28;20278;-49
2023/04/01 02:13:44;;;;;;;2.83;1.65;;;;;;;8.93;100.00;96985.06;4183505;28;20297;-50
2023/04/01 02:15:47;;;;;;;4.90;1.55;;;;;;;8.93;100.00;96983.16;4166611;28;20319;-50
2023/04/01 02:17:51;;;;;;;4.45;1.77;;;;;;;8.94;100.00;96984.00;4175036;28;20204;-49
2023/04/01 02:19:56;;;;;;;4.20;1.60;;;;;;;8.93;100.00;96983.16;4167308;28;20218;-49
2023/04/01 02:22:01;;;;;;;4.43;1.30;;;;;;;8.92;100.00;96977.97;4200318;28;20207;-49
2023/04/01 02:24:06;;;;;;;5.65;2.25;;;;;;;8.87;100.00;96980.72;4171167;28;20204;-49
2023/04/01 02:26:09;;;;;;;2.20;1.35;;;;;;;8.83;100.00;96982.38;4201320;28;20259;-49
2023/04/01 02:28:12;;;;;;;5.90;1.92;;;;;;;8.87;100.00;96986.16;4183737;28;20305;-49
2023/04/01 02:30:16;;;;;;;6.32;1.75;;;;;;;8.84;100.00;96975.81;4157744;28;20616;-49
2023/04/01 02:32:19;;;;;;;3.58;1.40;;;;;;;8.83;100.00;96974.19;4186120;28;22114;-49
2023/04/01 02:34:22;;;;;;;3.58;1.42;;;;;;;8.82;100.00;96975.28;4171798;28;20237;-49
2023/04/01 02:36:24;;;;;;;4.82;1.40;;;;;;;8.81;100.00;96981.84;4199319;28;20231;-49
2023/04/01 02:38:29;;;;;;;7.13;1.90;;;;;;;8.79;100.00;96982.09;4167215;28;20298;-50
2023/04/01 02:40:44;;;;;;;6.88;1.52;;;;;;;8.70;100.00;96974.75;4169030;28;20694;-49
2023/04/01 02:42:46;;;;;;;2.92;1.35;;;;;;;8.59;100.00;96973.97;4174719;28;20196;-50
2023/04/01 02:44:48;;;;;;;4.35;1.38;;;;;;;8.62;100.00;96983.50;4169383;28;20291;-49
2023/04/01 02:46:50;;;;;;;4.78;1.70;;;;;;;8.60;100.00;96970.16;4151176;28;20235;-49
2023/04/01 02:48:52;;;;;;;5.22;1.83;;;;;;;8.65;100.00;96974.75;4166507;28;20985;-49
2023/04/01 02:50:54;;;;;;;2.92;2.63;;;;;;;8.70;100.00;96980.22;4155636;28;20745;-49
2023/04/01 02:52:56;;;;;;;3.10;1.25;;;;;;;8.66;100.00;96968.22;4168402;28;20262;-50
2023/04/01 02:54:58;;;;;;;4.40;1.25;;;;;;;8.65;100.00;96958.41;4190840;28;20238;-50
2023/04/01 02:56:59;;;;;;;2.40;1.20;;;;;;;8.79;100.00;96968.47;4166803;28;20291;-50
2023/04/01 02:59:01;;;;;;;2.08;1.10;;;;;;;8.73;100.00;96955.13;4175481;28;20211;-51
2023/04/01 03:01:03;;;;;;;1.92;1.30;;;;;;;8.81;100.00;96955.38;4168284;28;20212;-51
2023/04/01 03:03:12;;;;;;;10.93;2.20;;;;;;;8.76;100.00;96962.75;4190747;28;20806;-49
2023/04/01 03:05:14;;;;;;;1.58;1.40;;;;;;;8.82;100.00;96951.53;4169326;28;20788;-50
2023/04/01 03:07:16;;;;;;;3.95;1.80;;;;;;;8.77;100.00;96953.47;4164545;28;20319;-50
2023/04/01 03:09:18;;;;;;;8.30;1.80;;;;;;;8.75;100.00;96961.13;4167112;28;20200;-51
2023/04/01 03:11:21;;;;;;;3.50;1.10;;;;;;;8.79;100.00;96963.03;4167687;28;20212;-51
2023/04/01 03:13:24;;;;;;;5.13;1.92;;;;;;;8.75;100.00;96955.69;4170168;28;20224;-50
2023/04/01 03:15:26;;;;;;;3.13;1.67;;;;;;;8.79;100.00;96965.75;4172984;28;20320;-49
2023/04/01 03:17:28;;;;;;;3.35;1.33;;;;;;;8.82;100.00;96964.38;4194413;28;20328;-48
2023/04/01 03:19:30;;;;;;;3.33;1.48;;;;;;;8.84;100.00;96964.91;4174440;28;20216;-48
2023/04/01 03:21:31;;;;;;;2.40;1.25;;;;;;;8.80;100.00;96958.38;4172741;28;20227;-48
2023/04/01 03:23:33;;;;;;;3.72;1.63;;;;;;;8.86;100.00;96958.09;4170244;28;20209;-48
2023/04/01 03:25:35;;;;;;;2.72;1.38;;;;;;;8.85;100.00;96963.81;4178942;28;20334;-48
2023/04/01 03:27:37;;;;;;;4.13;2.00;;;;;;;8.88;100.00;96976.91;4162866;28;20326;-49
2023/04/01 03:29:39;;;;;;;4.22;1.88;;;;;;;8.88;100.00;96966.81;4171646;28;20304;-48
2023/04/01 03:31:41;;;;;;;3.20;1.80;;;;;;;8.89;100.00;96965.69;4178228;28;20242;-49
2023/04/01 03:33:43;;;;;;;4.20;1.75;;;;;;;8.92;100.00;96967.91;4160880;28;20201;-48
2023/04/01 03:35:45;;;;;;;3.35;1.15;;;;;;;8.95;100.00;96961.06;4193111;28;20273;-49
2023/04/01 03:37:47;;;;;;;2.67;1.52;;;;;;;8.94;100.00;96957.50;4179587;28;20302;-50
2023/04/01 03:39:48;;;;;;;3.85;1.70;;;;;;;8.93;100.00;96955.06;4170328;28;20209;-49
2023/04/01 03:41:50;;;;;;;4.03;1.10;;;;;;;8.94;100.00;96956.72;4155526;28;20944;-50
2023/04/01 03:43:53;;;;;;;3.38;1.27;;;;;;;8.90;100.00;96958.34;4193708;28;20253;-49
2023/04/01 03:45:57;;;;;;;1.77;1.30;;;;;;;8.87;100.00;96958.88;4177658;28;20282;-49
2023/04/01 03:47:59;;;;;;;4.80;1.60;;;;;;;8.86;100.00;96958.09;4177041;28;20315;-52
2023/04/01 03:50:02;;;;;;;6.15;1.90;;;;;;;8.84;100.00;96959.47;4171528;28;20257;-50
2023/04/01 03:52:04;;;;;;;5.88;1.50;;;;;;;8.84;100.00;96943.09;4170124;28;20678;-49
2023/04/01 03:54:06;;;;;;;2.97;1.38;;;;;;;8.83;100.00;96957.81;4178349;28;20290;-49
2023/04/01 03:56:10;;;;;;;3.70;1.45;;;;;;;8.80;100.00;96958.38;4169954;28;20307;-50
2023/04/01 03:58:12;;;;;;;5.00;2.67;;;;;;;8.73;100.00;96957.84;4176014;28;20200;-50
2023/04/01 04:00:15;;;;;;;3.20;2.40;;;;;;;8.75;100.00;96952.94;4169752;28;20207;-50
2023/04/01 04:02:17;;;;;;;2.40;1.40;;;;;;;8.68;100.00;96949.69;4169313;28;20299;-50
2023/04/01 04:04:18;;;;;;;4.65;1.75;;;;;;;8.66;100.00;96952.69;4177444;28;20197;-50
2023/04/01 04:06:20;;;;;;;3.17;2.05;;;;;;;8.67;100.00;96958.94;4177948;28;20228;-50
2023/04/01 04:08:22;;;;;;;3.65;2.15;;;;;;;8.64;100.00;96954.06;4178448;28;20256;-49
2023/04/01 04:10:24;;;;;;;7.22;4.20;;;;;;;8.59;100.00;96954.06;4167959;28;20215;-49
2023/04/01 04:12:26;;;;;;;3.97;1.90;;;;;;;8.58;100.00;96955.16;4169735;28;20295;-49
2023/04/01 04:14:28;;;;;;;4.38;1.40;;;;;;;8.58;100.00;96961.44;4172341;28;20204;-49
2023/04/01 04:16:30;;;;;;;3.33;1.73;;;;;;;8.46;100.00;96962.78;4172375;28;20322;-49
2023/04/01 04:18:32;;;;;;;2.92;1.60;;;;;;;8.47;100.00;96964.44;4185131;28;20287;-49
2023/04/01 04:20:34;;;;;;;2.50;1.73;;;;;;;8.48;100.00;96966.09;4170450;28;20678;-49
2023/04/01 04:22:36;;;;;;;5.70;1.67;;;;;;;8.48;100.00;96960.63;4172059;28;20616;-50
2023/04/01 04:24:38;;;;;;;4.07;1.95;;;;;;;8.43;100.00;96968.81;4178191;28;20204;-50
2023/04/01 04:26:40;;;;;;;6.80;1.30;;;;;;;8.41;100.00;96971.00;4173328;28;20224;-50
2023/04/01 04:28:41;;;;;;;2.90;1.75;;;;;;;8.46;100.00;96968.25;4175960;28;20330;-51
2023/04/01 04:30:43;;;;;;;6.57;1.52;;;;;;;8.43;100.00;96968.81;4167888;28;20789;-49
2023/04/01 04:32:45;;;;;;;3.25;1.60;;;;;;;8.47;100.00;96962.53;4155145;28;20317;-50
2023/04/01 04:34:47;;;;;;;6.70;1.98;;;;;;;8.43;100.00;96960.63;4169525;28;20279;-49
2023/04/01 04:36:49;;;;;;;2.75;1.30;;;;;;;8.44;100.00;96954.09;4177979;28;20303;-49
2023/04/01 04:38:51;;;;;;;4.55;1.60;;;;;;;8.40;100.00;96958.44;4170558;28;20287;-50
2023/04/01 04:40:52;;;;;;;2.72;1.50;;;;;;;8.36;100.00;96957.38;4167842;28;20300;-49
2023/04/01 04:42:54;;;;;;;3.38;1.40;;;;;;;8.43;100.00;96955.19;4173441;28;20228;-51
2023/04/01 04:44:56;;;;;;;2.60;1.65;;;;;;;8.38;100.00;96960.63;4186802;28;20231;-51
2023/04/01 04:46:57;;;;;;;4.20;1.85;;;;;;;8.42;100.00;96953.56;4155159;28;20209;-49
2023/04/01 04:48:59;;;;;;;4.13;1.65;;;;;;;8.38;100.00;96949.72;4177540;28;20208;-49
2023/04/01 04:51:01;;;;;;;2.38;1.20;;;;;;;8.33;100.00;96947.84;4154371;28;20213;-49
2023/04/01 04:53:03;;;;;;;4.63;1.67;;;;;;;8.30;100.00;96951.09;4171581;28;20227;-50
2023/04/01 04:55:05;;;;;;;2.90;1.45;;;;;;;8.31;100.00;96938.28;4176439;28;20377;-51
2023/04/01 04:57:07;;;;;;;4.43;1.55;;;;;;;8.33;100.00;96963.34;4169393;28;20671;-50
2023/04/01 04:59:09;;;;;;;1.58;1.40;;;;;;;8.31;100.00;96946.47;4141479;28;20218;-50
2023/04/01 05:01:13;;;;;;;4.95;1.40;;;;;;;8.34;100.00;96940.50;4175537;28;20274;-49
2023/04/01 05:03:14;;;;;;;3.80;1.48;;;;;;;8.38;100.00;96953.28;4172148;28;20204;-49
2023/04/01 05:05:17;;;;;;;2.38;1.48;;;;;;;8.33;100.00;96957.91;4181582;28;20740;-50
2023/04/01 05:07:18;;;;;;;1.70;1.58;;;;;;;8.36;100.00;96957.38;4176573;28;20281;-50
2023/04/01 05:09:20;;;;;;;3.33;1.48;;;;;;;8.37;100.00;96942.66;4156090;28;20291;-50
2023/04/01 05:11:22;;;;;;;4.35;1.55;;;;;;;8.38;100.00;96947.00;4184731;28;20239;-50
2023/04/01 05:13:24;;;;;;;3.03;1.42;;;;;;;8.40;100.00;96955.72;4171122;28;20242;-50
2023/04/01 05:15:25;;;;;;;9.32;1.38;;;;;;;8.39;100.00;96962.25;4176569;28;20231;-49
2023/04/01 05:17:27;;;;;;;3.42;1.42;;;;;;;8.41;100.00;96949.19;4175886;28;20202;-50
2023/04/01 05:19:29;;;;;;;4.30;1.35;;;;;;;8.40;100.00;96967.44;4176843;28;20212;-49
2023/04/01 05:21:31;;;;;;;1.23;1.10;;;;;;;8.37;100.00;96950.84;4173158;28;20208;-49
2023/04/01 05:23:33;;;;;;;5.25;1.50;;;;;;;8.33;100.00;96953.28;4177551;28;20294;-50
2023/04/01 05:25:37;;;;;;;5.22;1.73;;;;;;;8.29;100.00;96956.84;4169596;28;20251;-49
2023/04/01 05:27:39;;;;;;;2.80;1.42;;;;;;;8.30;100.00;96953.81;4171045;28;20779;-50
2023/04/01 05:29:41;;;;;;;1.88;1.65;;;;;;;8.32;100.00;96948.09;4171816;28;20239;-52
2023/04/01 05:31:43;;;;;;;4.45;1.63;;;;;;;8.30;100.00;96950.28;4171876;28;20333;-50
2023/04/01 05:33:45;;;;;;;1.30;1.13;;;;;;;8.29;100.00;96943.22;4200047;28;20634;-51
2023/04/01 05:35:46;;;;;;;2.65;1.30;;;;;;;8.31;100.00;96954.66;4174642;28;20309;-50
2023/04/01 05:37:48;;;;;;;4.97;1.58;;;;;;;8.28;100.00;96939.66;4167170;28;20208;-49
2023/04/01 05:39:50;;;;;;;1.90;1.10;;;;;;;8.32;100.00;96938.03;4163742;28;20597;-51
2023/04/01 05:41:52;;;;;;;1.92;1.27;;;;;;;8.25;100.00;96944.84;4149976;28;20260;-50
2023/04/01 05:43:53;;;;;;;3.08;1.33;;;;;;;8.28;100.00;96931.47;4176804;28;20773;-49
2023/04/01 05:45:56;;;;;;;3.45;1.20;;;;;;;8.25;100.00;96934.78;4159932;28;20255;-50
2023/04/01 05:47:59;;;;;;;1.35;1.02;;;;;;;8.24;100.00;96916.78;4167105;28;20220;-50
2023/04/01 05:50:01;;;;;;;2.05;1.45;;;;;;;8.28;100.00;96930.69;4166523;28;20254;-50
2023/04/01 05:52:03;;;;;;;6.75;1.90;;;;;;;8.32;100.00;96929.03;4170730;28;20287;-49
2023/04/01 05:54:05;;;;;;;2.05;1.10;;;;;;;8.30;100.00;96928.50;4168196;28;20652;-49
2023/04/01 05:56:09;;;;;;;1.55;1.17;;;;;;;8.38;100.00;96930.66;4184498;28;20255;-49
2023/04/01 05:58:10;;;;;;;1.95;1.20;;;;;;;8.35;100.00;96928.50;4166357;28;20208;-50
2023/04/01 06:00:13;;;;;;;2.53;1.65;;;;;;;8.39;100.00;96932.28;4167864;28;20737;-51
2023/04/01 06:02:17;;;;;;;4.10;1.60;;;;;;;8.31;100.00;96944.56;4176284;28;20204;-49
2023/04/01 06:04:18;;;;;;;2.30;1.38;;;;;;;8.34;100.00;96933.13;4152056;28;20282;-49
2023/04/01 06:06:31;;;;;;;4.38;1.88;;;;;;;8.31;100.00;96941.03;4170850;28;20705;-50
2023/04/01 06:08:33;;;;;;;1.33;0.98;;;;;;;8.32;100.00;96940.75;4167460;28;20755;-50
2023/04/01 06:10:59;;;;;;;6.32;2.00;;;;;;;8.28;100.00;96950.56;4169164;28;20620;-49
2023/04/01 06:13:21;;;;;;;1.73;1.63;;;;;;;8.31;100.00;96943.75;4169790;28;20204;-51
2023/04/01 06:15:25;;;;;;;3.25;1.80;;;;;;;8.29;100.00;96949.47;4168078;28;20307;-50
2023/04/01 06:17:46;;;;;;;5.07;1.73;;;;;;;8.27;100.00;96961.72;4169125;28;20209;-51
2023/04/01 06:19:59;;;;;;;2.92;1.20;;;;;;;8.26;100.00;96957.38;4168574;28;20203;-49
2023/04/01 06:22:06;;;;;;;2.20;1.33;;;;;;;8.23;100.00;96952.47;4167359;28;20273;-49
2023/04/01 06:24:23;;;;;;;3.67;1.42;;;;;;;8.25;100.00;96966.63;4169411;28;20695;-50
2023/04/01 06:26:45;;;;;;;5.05;1.42;;;;;;;8.22;100.00;96965.28;4167587;28;20315;-49
2023/04/01 06:29:16;;;;;;;2.22;1.50;;;;;;;8.19;100.00;96967.69;4167136;28;20220;-50
2023/04/01 06:31:36;;;;;;;2.85;1.45;;;;;;;8.22;100.00;96956.28;4129982;28;20226;-50
2023/04/01 06:33:56;;;;;;;2.17;1.60;;;;;;;8.25;100.00;96961.19;4185833;28;20624;-51
2023/04/01 06:36:04;;;;;;;2.63;1.35;;;;;;;8.24;100.00;96971.28;4168478;28;20277;-50
2023/04/01 06:38:12;;;;;;;1.35;1.05;;;;;;;8.22;100.00;96961.75;4167683;28;20227;-50
2023/04/01 06:40:41;;;;;;;3.28;1.40;;;;;;;8.30;100.00;96958.47;4168390;28;20208;-49
2023/04/01 06:43:02;;;;;;;2.38;1.63;;;;;;;8.30;100.00;96961.19;4165803;28;20268;-50
2023/04/01 06:45:17;;;;;;;1.23;1.10;;;;;;;8.27;100.00;96961.72;4165600;28;20808;-50
2023/04/01 06:47:39;;;;;;;2.17;1.63;;;;;;;8.31;100.00;96960.09;4168511;28;20731;-50
2023/04/01 06:50:01;;;;;;;1.83;1.52;;;;;;;8.30;100.00;96953.00;4172364;28;20216;-49
2023/04/01 06:52:21;;;;;;;1.33;1.23;;;;;;;8.29;100.00;96954.13;4187668;28;20230;-50
2023/04/01 06:54:35;;;;;;;2.95;1.20;;;;;;;8.37;100.00;96948.09;4202028;28;20223;-49
2023/04/01 06:56:40;;;;;;;2.15;0.85;;;;;;;8.40;100.00;96942.91;4178697;28;20709;-50
2023/04/01 06:59:17;;;;;;;3.13;1.30;;;;;;;8.49;100.00;96945.91;4162703;28;20201;-49
2023/04/01 07:02:00;;;;;;;3.15;1.00;;;;;;;8.45;100.00;96936.63;4190154;28;20232;-51
2023/04/01 07:04:06;;;;;;;0.60;0.60;;;;;;;8.52;100.00;96937.16;4152818;28;20223;-49
2023/04/01 07:06:16;;;;;;;0.68;0.68;;;;;;;8.56;100.00;96938.25;4155544;28;20235;-49
2023/04/01 07:08:22;;;;;;;0.95;0.95;;;;;;;8.63;100.00;96938.78;4170948;28;20247;-51
2023/04/01 07:10:56;;;;;;;2.55;1.20;;;;;;;8.63;100.00;96941.53;4177708;28;20733;-49
2023/04/01 07:13:00;;;;;;;1.45;1.05;;;;;;;8.74;100.00;96943.13;4171283;28;20209;-51
2023/04/01 07:15:16;;;;;;;2.25;1.42;;;;;;;8.83;100.00;96946.91;4171059;28;20218;-49
2023/04/01 07:17:22;;;;;;;0.90;0.90;;;;;;;8.78;100.00;96950.47;4172564;28;20217;-50
2023/04/01 07:20:06;;;;;;;2.25;1.00;;;;;;;8.81;100.00;96944.47;4175204;28;20197;-50
2023/04/01 07:22:27;;;;;;;1.33;1.10;;;;;;;8.78;100.00;96945.03;4169196;28;20219;-50
2023/04/01 07:24:36;;;;;;;1.92;0.93;;;;;;;8.83;100.00;96955.09;4170677;28;20207;-49
2023/04/01 07:26:37;;;;;;;1.20;1.10;;;;;;;8.73;100.00;96961.41;4171004;28;20232;-50
2023/04/01 07:28:39;;;;;;;0.95;0.90;;;;;;;8.77;100.00;96948.84;4179365;28;20310;-50
2023/04/01 07:31:09;;;;;;;1.15;0.90;;;;;;;8.71;100.00;96957.31;4174421;28;20204;-49
2023/04/01 07:33:25;;;;;;;0.82;0.82;;;;;;;8.73;100.00;96960.56;4177530;28;20208;-51
2023/04/01 07:35:30;;;;;;;2.90;1.35;;;;;;;8.78;100.00;96968.75;4171260;28;20747;-49
2023/04/01 07:37:54;;;;;;;2.08;1.30;;;;;;;8.90;100.00;96970.06;4188369;28;20242;-51
2023/04/01 07:40:07;;;;;;;1.65;0.93;;;;;;;8.81;100.00;96969.00;4167902;28;20215;-49
2023/04/01 07:42:18;;;;;;;1.48;1.10;;;;;;;8.81;100.00;96976.38;4170534;28;20251;-51
2023/04/01 07:44:27;;;;;;;3.30;1.25;;;;;;;8.84;100.00;96971.19;4167857;28;20258;-51
2023/04/01 07:46:42;;;;;;;10.75;1.88;;;;;;;8.86;100.00;96977.19;4174034;28;20228;-50
2023/04/01 07:48:49;;;;;;;1.08;0.90;;;;;;;8.91;100.00;96976.34;4155256;28;20620;-49
2023/04/01 07:50:54;;;;;;;1.13;0.90;;;;;;;8.90;100.00;96991.88;4170777;28;20606;-50
2023/04/01 07:53:01;;;;;;;0.82;0.82;;;;;;;8.86;100.00;96985.38;4179095;28;20620;-50
2023/04/01 07:55:18;;;;;;;1.10;0.90;;;;;;;8.85;100.00;96977.44;4170231;28;20215;-50
2023/04/01 07:57:25;;;;;;;2.08;0.95;;;;;;;8.87;100.00;96983.44;4170162;28;20761;-50
2023/04/01 07:59:36;;;;;;;2.63;1.63;;;;;;;8.90;100.00;96991.09;4177358;28;21160;-50
2023/04/01 08:02:01;;;;;;;1.42;1.30;;;;;;;8.86;100.00;96988.09;4188467;28;20203;-50
2023/04/01 08:04:12;;;;;;;1.38;1.27;;;;;;;8.88;100.00;96985.09;4159998;28;20216;-49
2023/04/01 08:06:28;;;;;;;1.08;0.98;;;;;;;8.91;100.00;96995.44;4178905;28;20228;-50
2023/04/01 08:08:48;;;;;;;3.25;1.30;;;;;;;8.90;100.00;96986.44;4169793;28;20300;-52
2023/04/01 08:10:53;;;;;;;1.30;1.20;;;;;;;8.99;100.00;96994.88;4161090;28;20204;-52
2023/04/01 08:13:48;;;;;;;1.63;1.00;;;;;;;8.98;100.00;96998.69;4178984;28;20733;-51
2023/04/01 08:15:59;;;;;;;1.58;1.17;;;;;;;9.01;100.00;96989.97;4109896;28;20739;-51
2023/04/01 08:18:13;;;;;;;1.25;1.05;;;;;;;8.99;100.00;96994.88;4155536;28;20620;-50
2023/04/01 08:20:26;;;;;;;2.88;1.73;;;;;;;9.10;100.00;96991.03;4178201;28;20883;-50
2023/04/01 08:22:33;;;;;;;1.17;1.05;;;;;;;9.12;100.00;97005.19;4170240;28;20206;-51
2023/04/01 08:24:45;;;;;;;1.25;1.13;;;;;;;9.14;100.00;97008.47;4168456;28;20287;-50
2023/04/01 08:26:53;;;;;;;2.25;1.27;;;;;;;9.12;100.00;97008.75;4172636;28;20698;-52
2023/04/01 08:28:54;;;;;;;1.42;1.08;;;;;;;9.18;100.00;97004.09;4175819;28;20255;-51
2023/04/01 08:31:00;;;;;;;1.15;1.05;;;;;;;9.27;100.00;97013.31;4171633;28;20212;-50
2023/04/01 08:33:17;;;;;;;0.82;0.82;;;;;;;9.20;100.00;97015.53;4171700;28;20255;-50
2023/04/01 08:35:32;;;;;;;1.20;1.10;;;;;;;9.24;100.00;97012.00;4177331;28;20808;-50
2023/04/01 08:37:39;;;;;;;1.48;1.17;;;;;;;9.29;100.00;97005.69;4171508;28;20282;-51
2023/04/01 08:39:45;;;;;;;1.40;1.10;;;;;;;9.29;100.00;97001.03;4173597;28;20232;-50
2023/04/01 08:42:01;;;;;;;1.33;1.23;;;;;;;9.39;100.00;97008.38;4177063;28;20211;-52
2023/04/01 08:44:26;;;;;;;1.33;1.23;;;;;;;9.36;100.00;97017.13;4202116;28;20203;-51
2023/04/01 08:46:43;;;;;;;0.93;0.80;;;;;;;9.35;100.00;97016.31;4160586;28;20621;-51
2023/04/01 08:48:54;;;;;;;0.68;0.68;;;;;;;9.37;100.00;97016.03;4167436;28;20212;-52
2023/04/01 08:51:23;;;;;;;1.45;0.90;;;;;;;9.46;100.00;97017.91;4169715;28;20211;-50
2023/04/01 08:53:50;;;;;;;1.00;0.90;;;;;;;9.49;100.00;97022.00;4169158;28;20200;-50
2023/04/01 08:56:20;;;;;;;2.55;0.90;;;;;;;9.47;100.00;97026.91;4172184;28;20580;-50
2023/04/01 08:58:42;;;;;;;1.58;0.80;;;;;;;9.53;100.00;97028.50;4166519;28;20259;-50
2023/04/01 09:00:54;;;;;;;1.48;0.80;;;;;;;9.58;100.00;97026.59;4152210;28;20211;-50
2023/04/01 09:03:02;;;;;;;2.70;1.00;;;;;;;9.57;100.00;97027.69;4152719;28;20212;-51
2023/04/01 09:05:23;;;;;;;0.70;0.70;;;;;;;9.67;100.00;97035.03;4168785;28;20918;-51
2023/04/01 09:07:42;;;;;;;1.00;0.90;;;;;;;9.61;100.00;97031.47;4175919;28;20208;-50
2023/04/01 09:09:55;;;;;;;0.77;0.77;;;;;;;9.72;100.00;97026.78;4169696;28;20257;-50
2023/04/01 09:12:15;;;;;;;1.15;0.95;;;;;;;9.61;100.00;97033.41;4168179;28;20677;-51
2023/04/01 09:14:31;;;;;;;1.70;1.10;;;;;;;9.57;100.00;97040.50;4167529;28;20215;-51
2023/04/01 09:17:10;;;;;;;1.15;1.02;;;;;;;9.62;100.00;97037.78;4171084;28;20229;-50
2023/04/01 09:19:40;;;;;;;2.00;0.90;;;;;;;9.63;100.00;97042.13;4167130;28;20945;-50
2023/04/01 09:21:51;;;;;;;1.33;0.90;;;;;;;9.48;100.00;97036.75;4176406;28;20710;-50
2023/04/01 09:23:59;;;;;;;1.73;1.00;;;;;;;9.56;100.00;97050.63;4177850;28;20249;-51
2023/04/01 09:26:30;;;;;;;0.75;0.70;;;;;;;9.64;100.00;97046.50;4168127;28;20227;-50
2023/04/01 09:28:45;;;;;;;1.02;0.73;;;;;;;9.58;100.00;97044.88;4152654;28;20219;-52
2023/04/01 09:30:47;;;;;;;0.85;0.85;;;;;;;9.52;100.00;97054.19;4175259;28;20789;-51
2023/04/01 09:33:16;;;;;;;0.70;0.70;;;;;;;9.66;100.00;97049.75;4172105;28;20242;-51
2023/04/01 09:35:43;;;;;;;0.75;0.70;;;;;;;9.61;100.00;97042.41;4170166;28;20232;-50
2023/04/01 09:38:12;;;;;;;1.17;0.80;;;;;;;9.54;100.00;97046.56;4167921;28;20212;-50
2023/04/01 09:40:31;;;;;;;0.90;0.90;;;;;;;9.54;100.00;97047.34;4166839;28;20295;-51
2023/04/01 09:42:51;;;;;;;0.90;0.88;;;;;;;9.56;100.00;97049.81;4167676;28;20266;-50
2023/04/01 09:45:02;;;;;;;0.68;0.68;;;;;;;9.56;100.00;97055.28;4169325;28;20656;-51
2023/04/01 09:47:43;;;;;;;0.85;0.85;;;;;;;9.56;100.00;97061.53;4165029;28;20204;-50
2023/04/01 09:50:22;;;;;;;0.82;0.82;;;;;;;9.61;100.00;97052.53;4153589;28;20223;-51
2023/04/01 09:52:48;;;;;;;2.13;1.35;;;;;;;9.64;100.00;97055.53;4176322;28;20307;-52
2023/04/01 09:55:08;;;;;;;0.82;0.82;;;;;;;9.64;100.00;97063.72;4166336;28;21196;-50
2023/04/01 09:57:45;;;;;;;1.92;0.85;;;;;;;9.63;100.00;97055.78;4170573;28;20744;-51
2023/04/01 10:00:18;;;;;;;0.80;0.80;;;;;;;9.73;100.00;97063.91;4129961;28;20278;-51
2023/04/01 10:02:41;;;;;;;1.48;0.93;;;;;;;9.71;100.00;97063.38;4168648;28;20208;-51
2023/04/01 10:04:55;;;;;;;1.00;1.00;;;;;;;9.73;100.00;97067.47;4169504;28;20295;-51
2023/04/01 10:07:21;;;;;;;0.80;0.80;;;;;;;9.69;100.00;97066.41;4150836;28;20236;-51